Time;durP1;ratioP1;P1;durP2;ratioP2;P2;SDS_P1;SDS_P2;PMS_P1;PMS_P2;Temp;Humidity;BMP_temperature;BMP_pressure;BME280_temperature;BME280_humidity;BME280_pressure;Samples;Min_cycle;Max_cycle;Signal;HPM_P1;HPM_P2
2023/01/15 00:00:20;;;;;;;9.60;2.10;;;10.70;76.50;;;;;;5116080;27;20047;-64
2023/01/15 00:02:45;;;;;;;10.23;2.05;;;10.70;76.30;;;;;;5113605;28;20432;-64
2023/01/15 00:05:12;;;;;;;7.88;2.10;;;10.70;76.10;;;;;;5122481;27;20035;-64
2023/01/15 00:07:38;;;;;;;8.25;1.77;;;10.70;76.10;;;;;;5114375;28;20107;-64
2023/01/15 00:10:04;;;;;;;6.80;1.70;;;10.70;76.00;;;;;;5111183;28;20118;-65
2023/01/15 00:12:30;;;;;;;7.80;1.60;;;10.60;75.90;;;;;;5113185;28;20463;-65
2023/01/15 00:14:56;;;;;;;6.25;2.00;;;10.60;75.80;;;;;;5105069;28;20036;-64
2023/01/15 00:17:22;;;;;;;7.10;1.63;;;10.60;75.70;;;;;;5112264;28;20083;-64
2023/01/15 00:19:48;;;;;;;11.25;2.08;;;10.60;75.70;;;;;;5102396;28;20110;-64
2023/01/15 00:22:14;;;;;;;9.85;1.88;;;10.60;75.80;;;;;;5114638;28;20500;-64
2023/01/15 00:27:39;;;;;;;5.55;1.48;;;10.60;75.70;;;;;;5111944;28;20055;-64
2023/01/15 00:30:08;;;;;;;6.93;1.60;;;10.50;75.60;;;;;;5105086;28;20466;-64
2023/01/15 00:32:36;;;;;;;5.95;1.35;;;10.50;75.60;;;;;;5110371;28;20046;-64
2023/01/15 00:35:02;;;;;;;9.63;1.90;;;10.60;75.50;;;;;;5104840;28;20024;-64
2023/01/15 00:37:28;;;;;;;6.97;1.38;;;10.60;75.50;;;;;;5125740;27;20111;-64
2023/01/15 00:39:54;;;;;;;7.03;1.92;;;10.60;75.40;;;;;;5091275;28;20103;-64
2023/01/15 00:42:20;;;;;;;4.85;1.20;;;10.50;75.40;;;;;;5107705;28;20024;-64
2023/01/15 00:44:45;;;;;;;9.13;1.65;;;10.50;75.30;;;;;;5094283;28;20121;-65
2023/01/15 00:47:13;;;;;;;6.30;1.40;;;10.50;75.30;;;;;;5115592;28;20341;-64
2023/01/15 00:49:43;;;;;;;7.20;1.60;;;10.50;75.30;;;;;;5112391;28;20074;-64
2023/01/15 00:52:09;;;;;;;8.60;1.60;;;10.50;75.20;;;;;;5113905;28;20035;-64
2023/01/15 00:54:35;;;;;;;6.97;1.80;;;10.50;75.20;;;;;;5095519;28;20031;-64
2023/01/15 00:57:01;;;;;;;7.38;1.70;;;10.50;75.10;;;;;;5102580;28;20456;-65
2023/01/15 00:59:27;;;;;;;7.47;1.67;;;10.50;75.00;;;;;;5108032;28;20022;-64
2023/01/15 01:01:53;;;;;;;7.25;1.95;;;10.50;74.90;;;;;;5112223;28;20023;-65
2023/01/15 01:04:19;;;;;;;10.43;2.15;;;10.50;74.80;;;;;;5113615;28;20371;-64
2023/01/15 01:06:45;;;;;;;5.53;1.30;;;10.50;74.60;;;;;;5106040;28;20420;-64
2023/01/15 01:09:14;;;;;;;7.50;1.65;;;10.50;74.50;;;;;;5109122;28;20059;-65
2023/01/15 01:11:41;;;;;;;9.63;2.25;;;10.50;74.50;;;;;;5108050;28;20030;-64
2023/01/15 01:14:08;;;;;;;8.13;1.80;;;10.50;74.50;;;;;;5112834;28;20027;-64
2023/01/15 01:16:36;;;;;;;4.82;1.35;;;10.50;74.60;;;;;;5113486;28;20022;-64
2023/01/15 01:19:17;;;;;;;9.02;1.85;;;10.40;74.50;;;;;;5114315;28;20031;-64
2023/01/15 01:21:44;;;;;;;6.63;1.60;;;10.50;74.40;;;;;;5090697;28;20057;-64
2023/01/15 01:24:12;;;;;;;7.28;1.50;;;10.40;74.30;;;;;;5113398;28;20024;-64
2023/01/15 01:26:38;;;;;;;12.52;1.88;;;10.40;74.10;;;;;;5106371;28;20349;-64
2023/01/15 01:29:03;;;;;;;7.13;1.98;;;10.40;73.90;;;;;;5125939;27;20122;-64
2023/01/15 01:31:29;;;;;;;7.90;1.65;;;10.40;73.90;;;;;;5111874;28;20024;-64
2023/01/15 01:33:57;;;;;;;10.40;1.98;;;10.40;73.80;;;;;;5110864;28;20461;-64
2023/01/15 01:36:31;;;;;;;8.85;1.95;;;10.40;73.60;;;;;;5095650;28;20023;-64
2023/01/15 01:38:58;;;;;;;6.63;1.48;;;10.40;73.40;;;;;;5109119;28;20019;-64
2023/01/15 01:41:25;;;;;;;6.82;1.38;;;10.30;73.40;;;;;;5112162;28;20360;-64
2023/01/15 01:44:27;;;;;;;7.93;2.22;;;10.30;73.40;;;;;;5102136;28;20350;-64
2023/01/15 01:46:52;;;;;;;7.75;1.83;;;10.30;73.20;;;;;;5107907;28;20024;-65
2023/01/15 01:49:20;;;;;;;7.25;1.58;;;10.30;73.40;;;;;;5110539;28;20541;-64
2023/01/15 01:52:01;;;;;;;8.07;2.10;;;10.30;73.30;;;;;;5104280;28;20449;-64
2023/01/15 01:54:31;;;;;;;8.70;2.05;;;10.30;73.10;;;;;;5098548;28;20030;-64
2023/01/15 01:56:57;;;;;;;6.95;1.40;;;10.30;73.10;;;;;;5109700;28;20117;-64
2023/01/15 01:59:24;;;;;;;9.43;1.60;;;10.30;73.20;;;;;;5102560;28;20173;-64
2023/01/15 02:01:51;;;;;;;7.85;1.67;;;10.30;73.20;;;;;;5102956;28;20317;-64
2023/01/15 02:04:21;;;;;;;7.20;1.92;;;10.30;73.00;;;;;;5102624;28;20036;-65
2023/01/15 02:06:47;;;;;;;7.07;2.00;;;10.20;72.90;;;;;;5113864;28;20034;-64
2023/01/15 02:09:13;;;;;;;10.82;2.05;;;10.20;72.90;;;;;;5111482;28;20035;-64
2023/01/15 02:11:38;;;;;;;9.88;2.08;;;10.20;72.80;;;;;;5114557;28;20119;-64
2023/01/15 02:14:29;;;;;;;5.10;1.05;;;10.20;72.70;;;;;;5094577;28;20031;-64
2023/01/15 02:17:06;;;;;;;6.97;1.83;;;10.20;72.50;;;;;;5117108;28;20032;-64
2023/01/15 02:19:50;;;;;;;9.15;1.40;;;10.20;72.50;;;;;;5100158;28;20020;-64
2023/01/15 02:23:04;;;;;;;5.93;1.48;;;10.20;72.50;;;;;;5099754;28;20058;-64
2023/01/15 02:26:02;;;;;;;12.20;2.03;;;10.20;72.40;;;;;;5069208;28;20173;-64
2023/01/15 02:28:33;;;;;;;5.88;1.42;;;10.20;72.50;;;;;;5115158;28;20036;-64
2023/01/15 02:31:20;;;;;;;6.25;1.45;;;10.20;72.50;;;;;;5116984;28;20015;-64
2023/01/15 02:34:09;;;;;;;11.25;1.75;;;10.20;72.50;;;;;;5111410;28;20433;-64
2023/01/15 02:36:38;;;;;;;8.48;2.00;;;10.20;72.40;;;;;;5112599;28;20019;-64
2023/01/15 02:39:09;;;;;;;8.65;1.58;;;10.10;72.50;;;;;;5110581;28;20047;-64
2023/01/15 02:41:41;;;;;;;8.00;1.85;;;10.20;72.40;;;;;;5101860;28;20034;-64
2023/01/15 02:44:09;;;;;;;6.20;1.42;;;10.10;72.30;;;;;;5115396;28;20027;-64
2023/01/15 02:46:38;;;;;;;10.50;1.83;;;10.10;72.30;;;;;;5098215;28;20031;-64
2023/01/15 02:49:10;;;;;;;7.60;1.83;;;10.10;72.20;;;;;;5098818;28;20289;-64
2023/01/15 02:51:54;;;;;;;7.35;1.52;;;10.10;72.20;;;;;;5115974;28;20122;-64
2023/01/15 02:54:24;;;;;;;7.78;1.98;;;10.10;72.00;;;;;;5098302;28;20024;-65
2023/01/15 02:56:51;;;;;;;9.73;2.10;;;10.10;72.00;;;;;;5115136;28;20024;-64
2023/01/15 02:59:24;;;;;;;5.07;1.30;;;10.00;72.00;;;;;;5108444;28;20044;-64
2023/01/15 03:01:59;;;;;;;4.85;1.25;;;10.00;71.90;;;;;;5115659;27;20449;-64
2023/01/15 03:04:36;;;;;;;6.10;1.80;;;10.00;71.80;;;;;;5100916;28;20016;-64
2023/01/15 03:07:11;;;;;;;7.10;1.27;;;10.00;71.80;;;;;;5097871;28;20032;-64
2023/01/15 03:09:39;;;;;;;8.18;1.65;;;10.00;71.80;;;;;;5114858;28;20069;-64
2023/01/15 03:12:16;;;;;;;4.43;1.42;;;10.00;71.90;;;;;;5110486;28;20050;-64
2023/01/15 03:14:55;;;;;;;10.43;1.85;;;10.00;71.70;;;;;;5108314;28;20110;-64
2023/01/15 03:17:28;;;;;;;4.97;1.40;;;10.00;71.70;;;;;;5110553;28;20027;-64
2023/01/15 03:20:17;;;;;;;10.18;1.50;;;10.00;71.70;;;;;;5114808;28;20024;-65
2023/01/15 03:22:48;;;;;;;7.95;1.30;;;10.00;71.70;;;;;;5115366;28;20027;-66
2023/01/15 03:25:23;;;;;;;7.72;1.63;;;9.90;71.70;;;;;;5106369;28;20036;-64
2023/01/15 03:27:55;;;;;;;10.23;1.77;;;10.00;71.70;;;;;;5101848;28;20076;-64
2023/01/15 03:30:22;;;;;;;7.63;1.20;;;10.00;71.70;;;;;;5107234;28;20561;-64
2023/01/15 03:32:49;;;;;;;3.67;1.20;;;9.90;71.60;;;;;;5112889;28;20051;-64
2023/01/15 03:35:51;;;;;;;7.80;1.90;;;9.90;71.60;;;;;;5093948;28;20058;-64
2023/01/15 03:38:40;;;;;;;10.10;1.73;;;10.00;71.50;;;;;;5108515;28;20035;-64
2023/01/15 03:41:28;;;;;;;7.18;1.63;;;9.90;71.60;;;;;;5106654;28;20440;-64
2023/01/15 03:44:23;;;;;;;7.10;1.38;;;9.90;71.40;;;;;;5114891;28;20333;-64
2023/01/15 03:46:53;;;;;;;8.30;1.58;;;9.90;71.50;;;;;;5104153;28;20027;-64
2023/01/15 03:49:41;;;;;;;6.60;1.67;;;9.90;71.50;;;;;;5114523;28;20393;-64
2023/01/15 03:52:25;;;;;;;6.90;1.55;;;9.90;71.40;;;;;;5091444;28;20090;-64
2023/01/15 03:54:58;;;;;;;6.15;1.40;;;9.90;71.40;;;;;;5108046;28;20077;-64
2023/01/15 03:57:51;;;;;;;7.32;1.30;;;9.90;71.30;;;;;;5101151;28;20452;-64
2023/01/15 04:00:26;;;;;;;6.25;1.20;;;9.90;71.10;;;;;;5109816;28;20410;-64
2023/01/15 04:02:59;;;;;;;7.05;1.85;;;9.80;71.20;;;;;;5115752;27;20520;-64
2023/01/15 04:05:28;;;;;;;11.03;1.70;;;9.80;71.20;;;;;;5111041;28;20026;-64
2023/01/15 04:07:55;;;;;;;6.22;1.70;;;9.80;71.20;;;;;;5110814;28;20023;-64
2023/01/15 04:10:21;;;;;;;9.23;1.70;;;9.80;71.20;;;;;;5108335;28;20024;-64
2023/01/15 04:12:48;;;;;;;8.48;2.03;;;9.80;71.30;;;;;;5102570;28;20046;-64
2023/01/15 04:15:15;;;;;;;9.25;2.28;;;9.80;71.30;;;;;;5117798;27;20401;-64
2023/01/15 04:17:41;;;;;;;7.47;1.60;;;9.80;71.20;;;;;;5113365;28;20019;-64
2023/01/15 04:20:08;;;;;;;7.60;1.38;;;9.80;71.20;;;;;;5110533;28;20064;-64
2023/01/15 04:22:35;;;;;;;5.05;1.15;;;9.80;71.20;;;;;;5104682;28;20064;-64
2023/01/15 04:25:02;;;;;;;12.77;2.55;;;9.80;71.20;;;;;;5107051;28;20348;-64
2023/01/15 04:27:28;;;;;;;6.82;1.40;;;9.80;71.20;;;;;;5114325;28;20119;-64
2023/01/15 04:29:53;;;;;;;7.22;1.70;;;9.80;71.20;;;;;;5106571;28;20206;-64
2023/01/15 04:32:19;;;;;;;8.55;1.48;;;9.70;71.20;;;;;;5106413;28;20111;-64
2023/01/15 04:34:45;;;;;;;6.43;1.50;;;9.70;71.20;;;;;;5106717;28;20035;-63
2023/01/15 04:37:10;;;;;;;12.40;1.42;;;9.70;71.20;;;;;;5114054;28;20016;-64
2023/01/15 04:39:36;;;;;;;7.10;1.77;;;9.70;71.20;;;;;;5099782;28;20221;-63
2023/01/15 04:44:46;;;;;;;4.20;1.10;;;9.70;71.00;;;;;;5105367;28;20031;-64
2023/01/15 04:47:12;;;;;;;8.52;1.67;;;9.70;70.90;;;;;;5114969;28;20031;-64
2023/01/15 04:49:38;;;;;;;6.32;1.83;;;9.70;70.90;;;;;;5110119;28;20036;-64
2023/01/15 04:52:04;;;;;;;6.32;1.50;;;9.70;70.80;;;;;;5109648;28;20386;-64
2023/01/15 04:54:30;;;;;;;9.98;1.67;;;9.70;70.80;;;;;;5099747;28;20055;-63
2023/01/15 04:56:56;;;;;;;8.48;1.70;;;9.70;70.70;;;;;;5124924;27;20069;-64
2023/01/15 04:59:24;;;;;;;9.13;1.92;;;9.70;70.70;;;;;;5111157;28;20030;-63
2023/01/15 05:01:51;;;;;;;5.85;1.33;;;9.70;70.60;;;;;;5111107;28;20084;-63
2023/01/15 05:04:17;;;;;;;7.18;1.50;;;9.70;70.60;;;;;;5104852;28;20051;-64
2023/01/15 05:06:42;;;;;;;6.07;1.77;;;9.70;70.60;;;;;;5105764;28;20077;-65
2023/01/15 05:09:08;;;;;;;7.82;1.73;;;9.60;70.50;;;;;;5114088;28;20069;-64
2023/01/15 05:11:36;;;;;;;6.22;1.85;;;9.60;71.20;;;;;;5106916;28;20138;-64
2023/01/15 05:14:02;;;;;;;9.85;2.08;;;9.70;70.60;;;;;;5089492;28;20457;-64
2023/01/15 05:16:29;;;;;;;6.82;1.58;;;9.60;70.60;;;;;;5107014;28;20026;-64
2023/01/15 05:18:58;;;;;;;10.77;2.15;;;9.60;70.50;;;;;;5114514;28;20028;-64
2023/01/15 05:21:32;;;;;;;7.78;1.63;;;9.60;70.40;;;;;;5090114;28;20046;-64
2023/01/15 05:24:00;;;;;;;12.07;1.95;;;9.70;70.50;;;;;;5102043;28;20483;-64
2023/01/15 05:26:29;;;;;;;9.25;2.15;;;9.70;70.60;;;;;;5107873;28;20024;-63
2023/01/15 05:28:56;;;;;;;11.10;2.33;;;9.60;70.50;;;;;;5114148;28;20222;-63
2023/01/15 05:31:23;;;;;;;8.73;1.83;;;9.60;70.50;;;;;;5102945;28;20035;-63
2023/01/15 05:33:50;;;;;;;7.22;1.90;;;9.60;70.50;;;;;;5108259;28;20451;-63
2023/01/15 05:36:19;;;;;;;8.73;2.00;;;9.60;70.50;;;;;;5106362;28;20069;-63
2023/01/15 05:38:45;;;;;;;7.32;1.70;;;9.60;70.50;;;;;;5113068;28;20030;-63
2023/01/15 05:44:01;;;;;;;7.95;1.40;;;9.60;70.50;;;;;;5110937;28;20341;-64
2023/01/15 05:46:27;;;;;;;8.23;1.55;;;9.60;70.50;;;;;;5096898;28;20347;-64
2023/01/15 05:48:53;;;;;;;14.07;1.88;;;9.50;70.50;;;;;;5117783;28;20024;-65
2023/01/15 05:51:19;;;;;;;7.68;2.00;;;9.50;70.40;;;;;;5111061;28;20023;-65
2023/01/15 05:53:45;;;;;;;6.35;1.80;;;9.50;70.40;;;;;;5113575;28;20019;-64
2023/01/15 05:56:11;;;;;;;6.95;1.90;;;9.50;70.40;;;;;;5110696;28;20464;-64
2023/01/15 05:58:37;;;;;;;8.15;2.28;;;9.40;70.30;;;;;;5095454;28;20524;-64
2023/01/15 06:01:07;;;;;;;8.32;1.77;;;9.40;70.30;;;;;;5096550;28;20107;-64
2023/01/15 06:03:33;;;;;;;6.80;1.67;;;9.40;70.30;;;;;;5112338;28;20023;-64
2023/01/15 06:05:59;;;;;;;5.72;1.33;;;9.40;70.30;;;;;;5115180;28;20046;-64
2023/01/15 06:08:25;;;;;;;6.57;1.33;;;9.40;70.30;;;;;;5110442;28;20031;-64
2023/01/15 06:10:51;;;;;;;11.00;2.05;;;9.30;70.20;;;;;;5117083;28;20028;-64
2023/01/15 06:13:17;;;;;;;7.65;1.55;;;9.30;70.20;;;;;;5108156;28;20054;-64
2023/01/15 06:15:43;;;;;;;8.13;2.05;;;9.40;70.20;;;;;;5112908;28;20027;-65
2023/01/15 06:18:10;;;;;;;7.72;1.77;;;9.40;70.20;;;;;;5106235;28;20019;-63
2023/01/15 06:20:37;;;;;;;6.82;1.70;;;9.40;70.10;;;;;;5117902;28;20023;-64
2023/01/15 06:23:03;;;;;;;6.43;1.30;;;9.40;70.00;;;;;;5114856;28;20055;-64
2023/01/15 06:25:34;;;;;;;8.02;1.67;;;9.40;69.90;;;;;;5109040;28;20023;-63
2023/01/15 06:28:00;;;;;;;5.15;1.45;;;9.40;69.80;;;;;;5104025;28;20041;-64
2023/01/15 06:30:25;;;;;;;8.48;1.85;;;9.40;70.40;;;;;;5105595;28;20453;-64
2023/01/15 06:32:51;;;;;;;6.45;1.30;;;9.40;69.70;;;;;;5110304;28;20032;-63
2023/01/15 06:35:17;;;;;;;6.78;1.95;;;9.40;69.60;;;;;;5110257;28;20035;-63
2023/01/15 06:37:42;;;;;;;10.43;1.27;;;9.40;69.40;;;;;;5107456;28;20016;-64
2023/01/15 06:40:09;;;;;;;8.00;2.00;;;9.40;69.40;;;;;;5119115;28;20028;-63
2023/01/15 06:48:03;;;;;;;11.27;1.55;;;9.30;69.30;;;;;;5114880;28;20035;-63
2023/01/15 06:50:29;;;;;;;8.27;1.70;;;9.20;69.30;;;;;;5120918;28;20084;-63
2023/01/15 06:52:55;;;;;;;11.35;2.15;;;9.20;69.30;;;;;;5104228;28;20460;-64
2023/01/15 06:55:22;;;;;;;4.82;1.02;;;9.20;69.40;;;;;;5121499;28;20019;-64
2023/01/15 06:57:48;;;;;;;6.47;1.63;;;9.20;69.30;;;;;;5113372;28;20051;-63
2023/01/15 07:00:14;;;;;;;7.47;1.67;;;9.20;69.30;;;;;;5110140;28;20023;-64
2023/01/15 07:02:40;;;;;;;9.23;1.67;;;9.20;69.30;;;;;;5115445;28;20429;-63
2023/01/15 07:05:07;;;;;;;6.70;1.88;;;9.20;69.20;;;;;;5107898;28;20033;-63
2023/01/15 07:07:33;;;;;;;5.18;1.77;;;9.20;69.20;;;;;;5115211;28;20024;-64
2023/01/15 07:09:59;;;;;;;6.13;1.50;;;9.20;69.80;;;;;;5080908;28;20052;-63
2023/01/15 07:12:25;;;;;;;6.13;1.50;;;9.20;69.30;;;;;;5098511;28;20023;-64
2023/01/15 07:14:51;;;;;;;7.50;1.88;;;9.20;69.60;;;;;;5111315;28;20036;-63
2023/01/15 07:17:17;;;;;;;6.75;2.03;;;9.10;69.80;;;;;;5095354;28;20023;-63
2023/01/15 07:19:43;;;;;;;7.50;1.90;;;9.10;70.00;;;;;;5108196;28;20020;-63
2023/01/15 07:22:09;;;;;;;6.80;1.20;;;9.10;70.30;;;;;;5109076;28;20106;-64
2023/01/15 07:24:35;;;;;;;5.55;1.15;;;9.00;70.50;;;;;;5109491;28;20035;-64
2023/01/15 07:27:01;;;;;;;7.05;1.52;;;9.00;70.80;;;;;;5102692;28;20055;-64
2023/01/15 07:29:27;;;;;;;12.30;1.98;;;9.00;70.90;;;;;;5064253;28;1153394;-66
2023/01/15 07:31:53;;;;;;;5.80;1.50;;;9.10;71.00;;;;;;5115320;28;20032;-66
2023/01/15 07:34:19;;;;;;;6.38;1.42;;;9.10;71.00;;;;;;5112764;28;20081;-65
2023/01/15 07:36:45;;;;;;;7.57;1.52;;;9.10;70.80;;;;;;5112364;28;20042;-65
2023/01/15 07:39:11;;;;;;;5.60;1.55;;;9.10;70.60;;;;;;5113983;28;20024;-65
2023/01/15 07:50:18;;;;;;;7.53;1.58;;;9.00;70.20;;;;;;5095792;27;20032;-69
2023/01/15 07:52:44;;;;;;;7.10;1.60;;;9.00;70.40;;;;;;5100454;28;20024;-66
2023/01/15 07:55:11;;;;;;;6.22;1.35;;;9.00;70.30;;;;;;5092016;28;20332;-66
2023/01/15 07:57:37;;;;;;;7.63;2.05;;;9.00;70.20;;;;;;5112958;28;20031;-66
2023/01/15 08:00:05;;;;;;;6.68;1.48;;;9.00;70.20;;;;;;5106498;28;20024;-66
2023/01/15 08:02:38;;;;;;;6.10;1.42;;;8.90;70.10;;;;;;5101906;28;20106;-66
2023/01/15 08:05:04;;;;;;;6.07;1.40;;;8.90;70.10;;;;;;5096415;28;20026;-65
2023/01/15 08:07:35;;;;;;;5.65;1.92;;;8.90;70.10;;;;;;5114471;28;20076;-65
2023/01/15 08:10:00;;;;;;;6.78;1.83;;;8.90;70.00;;;;;;5109721;28;20069;-66
2023/01/15 08:15:13;;;;;;;8.32;1.50;;;8.90;70.60;;;;;;5111023;28;20032;-66
2023/01/15 08:17:41;;;;;;;9.95;1.73;;;8.90;69.80;;;;;;5112452;28;20020;-66
2023/01/15 08:20:28;;;;;;;8.00;1.95;;;8.90;69.90;;;;;;5084579;28;20035;-66
2023/01/15 08:22:53;;;;;;;8.00;2.08;;;8.90;69.80;;;;;;5115039;28;20039;-66
2023/01/15 08:25:22;;;;;;;8.18;1.20;;;8.90;69.80;;;;;;5115132;28;20071;-65
2023/01/15 08:27:48;;;;;;;7.55;1.80;;;8.90;69.70;;;;;;5113935;28;20031;-65
2023/01/15 08:30:17;;;;;;;6.03;1.40;;;8.90;69.60;;;;;;5110181;28;20047;-65
2023/01/15 08:32:43;;;;;;;5.75;1.70;;;8.90;69.40;;;;;;5113970;28;20023;-65
2023/01/15 08:35:09;;;;;;;4.43;1.17;;;9.00;69.30;;;;;;5114948;28;20031;-65
2023/01/15 08:37:35;;;;;;;6.75;2.25;;;9.00;69.00;;;;;;5113844;28;20027;-65
2023/01/15 08:40:01;;;;;;;7.90;1.42;;;9.10;68.90;;;;;;5105993;28;20405;-65
2023/01/15 08:42:27;;;;;;;8.20;1.77;;;9.10;68.70;;;;;;5110869;28;20032;-65
2023/01/15 08:44:52;;;;;;;8.00;1.80;;;9.20;68.60;;;;;;5113414;28;20027;-65
2023/01/15 08:47:18;;;;;;;6.68;1.40;;;9.20;68.50;;;;;;5119244;27;20035;-65
2023/01/15 08:49:47;;;;;;;7.88;1.55;;;9.30;68.40;;;;;;5109835;28;20035;-65
2023/01/15 08:52:13;;;;;;;6.40;2.15;;;9.40;68.10;;;;;;5108225;27;20067;-65
2023/01/15 08:54:39;;;;;;;6.25;1.60;;;9.40;68.00;;;;;;5109724;28;20028;-65
2023/01/15 08:57:04;;;;;;;6.47;1.80;;;9.50;67.80;;;;;;5110801;28;20355;-66
2023/01/15 08:59:30;;;;;;;9.73;2.05;;;9.50;67.60;;;;;;5111127;28;20020;-65
2023/01/15 09:01:56;;;;;;;7.10;1.52;;;9.60;67.60;;;;;;5104360;28;20352;-65
2023/01/15 09:04:22;;;;;;;6.63;1.38;;;9.60;67.40;;;;;;5088953;28;20023;-65
2023/01/15 09:06:48;;;;;;;9.05;1.75;;;9.70;67.20;;;;;;5093907;28;20028;-65
2023/01/15 09:09:15;;;;;;;6.32;1.30;;;9.80;67.00;;;;;;5110530;28;20490;-65
2023/01/15 09:11:41;;;;;;;3.65;1.15;;;9.80;66.80;;;;;;5111945;28;20039;-65
2023/01/15 09:14:11;;;;;;;8.80;1.83;;;9.80;66.40;;;;;;5102367;28;20019;-65
2023/01/15 09:16:37;;;;;;;5.13;1.33;;;9.90;66.20;;;;;;5095148;28;20027;-65
2023/01/15 09:19:04;;;;;;;6.32;1.85;;;9.90;66.10;;;;;;5114083;28;20081;-66
2023/01/15 09:21:31;;;;;;;6.10;1.45;;;10.00;65.90;;;;;;5106879;28;20107;-65
2023/01/15 09:23:56;;;;;;;5.45;1.40;;;10.00;65.80;;;;;;5109532;28;20032;-65
2023/01/15 09:26:27;;;;;;;4.50;1.48;;;10.10;65.70;;;;;;5114888;28;20034;-65
2023/01/15 09:28:53;;;;;;;8.30;1.45;;;10.10;66.00;;;;;;5113902;28;20416;-65
2023/01/15 09:31:19;;;;;;;5.03;1.27;;;10.10;65.30;;;;;;5107551;28;20106;-65
2023/01/15 09:33:45;;;;;;;8.95;1.92;;;10.10;65.30;;;;;;5097114;28;20038;-65
2023/01/15 09:36:22;;;;;;;5.00;1.48;;;10.10;65.10;;;;;;5114808;28;20028;-65
2023/01/15 09:38:48;;;;;;;6.20;1.30;;;10.10;65.10;;;;;;5115274;28;20024;-65
2023/01/15 09:44:28;;;;;;;8.20;1.90;;;10.20;64.80;;;;;;5101380;28;20092;-65
2023/01/15 09:47:00;;;;;;;6.90;1.92;;;10.20;65.40;;;;;;5096908;28;20115;-65
2023/01/15 09:49:36;;;;;;;8.20;1.80;;;10.20;64.90;;;;;;5131139;28;20032;-65
2023/01/15 09:52:17;;;;;;;6.72;1.42;;;10.20;64.80;;;;;;5109303;28;20028;-65
2023/01/15 09:55:08;;;;;;;8.13;1.58;;;10.10;64.90;;;;;;5106901;28;20118;-65
2023/01/15 09:57:35;;;;;;;7.40;1.25;;;10.20;64.90;;;;;;5097728;28;20035;-65
2023/01/15 10:00:04;;;;;;;7.00;1.75;;;10.20;65.00;;;;;;5108067;28;20034;-65
2023/01/15 10:02:58;;;;;;;5.15;1.25;;;10.20;64.90;;;;;;5106225;28;20089;-65
2023/01/15 10:05:29;;;;;;;7.22;1.60;;;10.20;64.80;;;;;;5109911;28;20035;-65
2023/01/15 10:08:13;;;;;;;8.73;1.77;;;10.20;64.90;;;;;;5113829;28;20035;-64
2023/01/15 10:10:57;;;;;;;8.70;1.83;;;10.20;64.80;;;;;;5114611;28;20039;-64
2023/01/15 10:13:30;;;;;;;6.88;1.45;;;10.40;64.60;;;;;;5113452;28;20041;-64
2023/01/15 10:15:56;;;;;;;7.13;1.50;;;10.50;64.40;;;;;;5113563;28;20028;-64
2023/01/15 10:18:24;;;;;;;7.25;1.40;;;10.60;64.20;;;;;;5114987;28;20027;-64
2023/01/15 10:21:04;;;;;;;9.20;1.92;;;10.80;64.00;;;;;;5114600;28;20055;-65
2023/01/15 10:23:43;;;;;;;9.27;2.25;;;10.90;63.50;;;;;;5112749;28;20386;-64
2023/01/15 10:26:27;;;;;;;6.82;1.48;;;11.00;63.20;;;;;;5113391;28;20035;-65
2023/01/15 10:28:58;;;;;;;7.57;1.48;;;11.20;63.00;;;;;;5114582;28;20071;-65
2023/01/15 10:31:44;;;;;;;;;;;11.30;62.70;;;;;;5114916;28;20430;-64
2023/01/15 10:34:31;;;;;;;5.72;1.30;;;11.20;62.70;;;;;;5075873;28;19961;-65
2023/01/15 10:37:03;;;;;;;5.95;1.25;;;11.20;62.80;;;;;;5119012;28;20032;-65
2023/01/15 10:40:10;;;;;;;10.23;2.00;;;11.20;62.60;;;;;;5118658;28;20028;-64
2023/01/15 10:42:54;;;;;;;4.70;1.35;;;11.30;62.50;;;;;;5118655;28;20044;-64
2023/01/15 10:45:24;;;;;;;7.30;1.58;;;11.30;62.40;;;;;;5105493;28;20099;-65
2023/01/15 10:48:05;;;;;;;5.05;1.30;;;11.30;62.30;;;;;;5099606;28;20032;-64
2023/01/15 10:50:32;;;;;;;7.38;1.77;;;11.30;62.10;;;;;;5111400;28;20156;-64
2023/01/15 10:53:25;;;;;;;4.95;1.40;;;11.30;62.20;;;;;;5116605;27;20024;-65
2023/01/15 10:56:06;;;;;;;6.18;1.38;;;11.20;62.10;;;;;;5114949;28;20084;-64
2023/01/15 10:58:57;;;;;;;9.02;1.40;;;11.10;62.20;;;;;;5117292;28;20038;-64
2023/01/15 11:01:26;;;;;;;7.53;1.92;;;11.00;62.40;;;;;;5110472;28;20507;-64
2023/01/15 11:03:53;;;;;;;7.35;2.10;;;10.90;62.50;;;;;;5114127;27;20418;-63
2023/01/15 11:06:22;;;;;;;5.90;1.67;;;10.80;62.70;;;;;;5094980;28;20513;-64
2023/01/15 11:08:56;;;;;;;7.40;2.00;;;10.70;62.80;;;;;;5116729;27;20035;-64
2023/01/15 11:20:44;;;;;;;9.40;1.80;;;10.50;63.00;;;;;;5111349;28;20027;-64
2023/01/15 11:23:13;;;;;;;6.28;1.60;;;10.60;62.90;;;;;;5114864;28;20024;-64
2023/01/15 11:25:51;;;;;;;6.93;1.40;;;10.60;62.70;;;;;;5117420;28;20030;-64
2023/01/15 11:28:17;;;;;;;9.60;1.67;;;10.60;62.50;;;;;;5088853;28;20415;-64
2023/01/15 11:30:53;;;;;;;7.45;1.55;;;10.60;62.70;;;;;;5114700;28;20040;-64
2023/01/15 11:33:25;;;;;;;5.53;1.50;;;10.50;62.90;;;;;;5102945;28;20035;-64
2023/01/15 11:35:57;;;;;;;11.52;2.08;;;10.50;63.10;;;;;;5115612;28;20024;-64
2023/01/15 11:38:24;;;;;;;7.20;1.77;;;10.40;63.20;;;;;;5088518;28;20015;-64
2023/01/15 11:40:52;;;;;;;8.18;2.00;;;10.40;63.50;;;;;;5105313;28;20036;-64
2023/01/15 11:52:07;;;;;;;7.18;1.70;;;10.50;63.60;;;;;;5104525;28;20372;-64
2023/01/15 11:54:37;;;;;;;6.78;1.40;;;10.50;63.70;;;;;;5112504;28;20358;-64
2023/01/15 11:57:05;;;;;;;4.70;1.08;;;10.40;63.70;;;;;;5096417;28;20077;-64
2023/01/15 11:59:31;;;;;;;9.57;1.83;;;10.40;63.90;;;;;;5114746;28;20028;-64
2023/01/15 12:02:40;;;;;;;7.88;2.13;;;10.30;64.10;;;;;;5111160;28;20034;-64
2023/01/15 12:05:17;;;;;;;7.10;1.83;;;10.20;64.70;;;;;;5112900;28;20027;-64
2023/01/15 12:07:44;;;;;;;7.63;2.42;;;10.10;65.20;;;;;;5112610;27;20024;-64
2023/01/15 12:10:17;;;;;;;8.05;2.42;;;10.00;65.50;;;;;;5112306;28;20023;-64
2023/01/15 12:13:11;;;;;;;7.20;1.58;;;10.00;65.80;;;;;;5092607;28;20156;-64
2023/01/15 12:15:53;;;;;;;6.13;1.60;;;10.00;66.10;;;;;;5105859;28;20110;-65
2023/01/15 12:18:38;;;;;;;8.38;1.80;;;9.90;66.20;;;;;;5099720;28;20043;-65
2023/01/15 12:21:22;;;;;;;5.72;1.38;;;10.00;66.20;;;;;;5089428;27;20031;-64
2023/01/15 12:24:16;;;;;;;7.38;1.52;;;10.00;66.20;;;;;;5102572;27;20024;-65
2023/01/15 12:27:20;;;;;;;7.80;1.70;;;10.00;66.20;;;;;;5099439;27;20031;-64
2023/01/15 12:29:53;;;;;;;6.82;1.67;;;10.10;66.10;;;;;;5097422;27;20119;-64
2023/01/15 12:32:25;;;;;;;5.03;1.25;;;10.10;66.10;;;;;;5102116;27;20139;-65
2023/01/15 12:34:58;;;;;;;7.05;1.40;;;10.20;66.10;;;;;;5101671;27;20381;-65
2023/01/15 12:37:49;;;;;;;6.75;1.70;;;10.20;65.90;;;;;;5104735;27;20031;-64
2023/01/15 12:40:26;;;;;;;5.50;1.90;;;10.30;66.00;;;;;;5098729;27;20024;-64
2023/01/15 12:45:46;;;;;;;6.82;1.10;;;10.10;66.40;;;;;;5099870;28;20035;-64
2023/01/15 12:48:21;;;;;;;5.20;1.30;;;10.10;66.90;;;;;;5101390;28;20024;-64
2023/01/15 12:50:51;;;;;;;4.03;1.05;;;10.00;67.20;;;;;;5110161;27;20501;-64
2023/01/15 12:53:35;;;;;;;3.65;1.02;;;9.90;67.50;;;;;;5106057;28;20036;-64
2023/01/15 12:56:16;;;;;;;5.22;1.05;;;9.90;67.80;;;;;;5100712;28;20059;-65
2023/01/15 12:58:53;;;;;;;4.13;1.23;;;9.80;68.00;;;;;;5100968;28;20391;-65
2023/01/15 13:01:48;;;;;;;5.38;1.35;;;9.80;68.00;;;;;;5108555;28;20030;-65
2023/01/15 13:04:16;;;;;;;2.28;1.08;;;9.80;68.30;;;;;;5106109;27;20046;-65
2023/01/15 13:06:50;;;;;;;5.05;1.20;;;9.70;68.40;;;;;;5109169;27;20077;-65
2023/01/15 13:09:42;;;;;;;4.22;1.13;;;9.70;68.60;;;;;;5106311;28;20038;-65
2023/01/15 13:12:14;;;;;;;4.13;1.10;;;9.70;68.70;;;;;;5111258;27;20452;-65
2023/01/15 13:14:41;;;;;;;5.07;1.52;;;9.70;68.70;;;;;;5108945;28;20479;-66
2023/01/15 13:17:07;;;;;;;6.53;1.90;;;9.80;68.70;;;;;;5108949;27;20028;-65
2023/01/15 13:19:39;;;;;;;5.78;1.27;;;9.90;68.60;;;;;;5094467;27;20023;-65
2023/01/15 13:22:11;;;;;;;;;;;9.90;68.50;;;;;;5115564;27;20407;-66
2023/01/15 13:25:11;;;;;;;4.65;1.45;;;9.90;68.40;;;;;;5102150;27;19908;-65
2023/01/15 13:28:00;;;;;;;6.68;1.40;;;9.90;68.40;;;;;;5111326;27;20020;-66
2023/01/15 13:30:51;;;;;;;6.30;1.40;;;9.80;68.30;;;;;;5118742;27;20035;-65
2023/01/15 13:33:49;;;;;;;6.47;1.97;;;9.80;68.40;;;;;;5104465;27;20103;-65
2023/01/15 13:36:22;;;;;;;7.40;1.50;;;9.80;68.50;;;;;;5099838;27;20036;-65
2023/01/15 13:38:53;;;;;;;7.50;1.85;;;9.90;68.60;;;;;;5081515;28;20397;-65
2023/01/15 13:44:19;;;;;;;4.45;1.52;;;9.90;68.60;;;;;;5102657;28;20077;-65
2023/01/15 13:47:03;;;;;;;9.50;2.40;;;9.90;68.60;;;;;;5106466;28;20470;-66
2023/01/15 13:49:51;;;;;;;5.32;1.60;;;10.00;68.50;;;;;;5102738;28;20035;-65
2023/01/15 13:52:26;;;;;;;5.78;1.63;;;9.90;68.40;;;;;;5106554;28;20028;-65
2023/01/15 13:54:53;;;;;;;7.38;1.90;;;9.90;68.40;;;;;;5106807;28;20031;-65
2023/01/15 13:57:35;;;;;;;7.35;2.05;;;9.90;68.60;;;;;;5113254;28;20027;-65
2023/01/15 14:00:06;;;;;;;6.03;1.60;;;9.90;68.80;;;;;;5098349;28;20116;-65
2023/01/15 14:02:39;;;;;;;6.82;1.92;;;9.80;68.90;;;;;;5108457;28;20045;-65
2023/01/15 14:05:24;;;;;;;6.13;1.40;;;9.80;68.90;;;;;;5109692;28;20412;-66